RJTH(METAR)
10/19 17:00
RJTH 190800Z 06030KT 2000 RA FEW004 BKN010 BKN015 20/19 Q1011 RMK
A2986=
戻る
トップページへ戻る
IMOC Co,.Ltd.